Time;durP1;ratioP1;P1;durP2;ratioP2;P2;SDS_P1;SDS_P2;PMS_P1;PMS_P2;Temp;Humidity;BMP_temperature;BMP_pressure;BME280_temperature;BME280_humidity;BME280_pressure;Samples;Min_cycle;Max_cycle;Signal;HPM_P1;HPM_P2
2022/05/05 00:01:23;;;;;;;13.45;3.60;;;;;;;;;;5000353;28;20402;-66
2022/05/05 00:03:48;;;;;;;6.47;3.47;;;;;;;;;;5026319;28;20026;-66
2022/05/05 00:06:14;;;;;;;8.80;3.55;;;;;;;;;;5015051;28;20092;-66
2022/05/05 00:08:39;;;;;;;10.50;3.10;;;;;;;;;;5011298;28;20405;-66
2022/05/05 00:14:33;;;;;;;7.55;3.40;;;;;;;;;;5023215;28;20283;-66
2022/05/05 00:16:33;;;;;;;7.68;3.45;;;;;;;;;;5013685;28;20132;-66
2022/05/05 00:18:59;;;;;;;7.72;3.20;;;;;;;;;;5024007;28;20444;-66
2022/05/05 00:21:24;;;;;;;11.33;4.83;;;;;;;;;;5011429;28;20032;-66
2022/05/05 00:23:49;;;;;;;8.02;3.75;;;;;;;;;;5014998;28;20321;-66
2022/05/05 00:26:14;;;;;;;13.80;3.67;;;;;;;;;;5023404;28;20029;-66
2022/05/05 00:28:39;;;;;;;13.45;3.67;;;;;;;;;;5026419;28;20287;-66
2022/05/05 00:31:04;;;;;;;11.30;3.83;;;;;;;;;;5017882;28;20024;-66
2022/05/05 00:33:30;;;;;;;7.70;4.00;;;;;;;;;;5020257;28;20319;-66
2022/05/05 00:35:55;;;;;;;9.05;3.40;;;;;;;;;;5012225;28;20326;-66
2022/05/05 00:38:21;;;;;;;9.43;3.25;;;;;;;;;;5015663;28;20018;-66
2022/05/05 00:40:46;;;;;;;12.02;4.18;;;;;;;;;;5016797;28;20032;-66
2022/05/05 00:43:11;;;;;;;9.07;3.93;;;;;;;;;;5021671;28;20402;-66
2022/05/05 00:45:37;;;;;;;11.25;3.55;;;;;;;;;;5016279;28;20280;-66
2022/05/05 00:48:04;;;;;;;16.02;5.25;;;;;;;;;;5020715;28;20018;-66
2022/05/05 00:50:31;;;;;;;9.70;4.22;;;;;;;;;;5011004;28;20022;-66
2022/05/05 00:52:56;;;;;;;7.53;4.00;;;;;;;;;;5012059;28;20030;-66
2022/05/05 00:55:21;;;;;;;9.63;3.77;;;;;;;;;;5019664;28;20474;-66
2022/05/05 00:57:46;;;;;;;9.52;3.80;;;;;;;;;;5024846;28;20452;-66
2022/05/05 01:00:12;;;;;;;11.63;5.00;;;;;;;;;;5022545;28;20017;-66
2022/05/05 01:02:37;;;;;;;17.27;4.60;;;;;;;;;;5021793;28;20025;-66
2022/05/05 01:05:02;;;;;;;8.63;3.53;;;;;;;;;;5009725;28;20470;-66
2022/05/05 01:07:28;;;;;;;11.65;3.78;;;;;;;;;;5019278;28;20067;-66
2022/05/05 01:09:53;;;;;;;17.05;3.90;;;;;;;;;;5023644;28;20107;-66
2022/05/05 01:12:20;;;;;;;13.95;4.05;;;;;;;;;;5010218;28;20160;-66
2022/05/05 01:14:45;;;;;;;10.10;3.65;;;;;;;;;;5021949;28;20322;-66
2022/05/05 01:17:10;;;;;;;12.30;4.22;;;;;;;;;;5015657;28;20021;-66
2022/05/05 01:19:35;;;;;;;8.47;3.93;;;;;;;;;;5020234;28;20034;-66
2022/05/05 01:22:01;;;;;;;11.88;4.07;;;;;;;;;;5011769;28;20295;-66
2022/05/05 01:29:54;;;;;;;11.18;4.25;;;;;;;;;;5015232;28;20648;-66
2022/05/05 01:32:19;;;;;;;10.40;3.88;;;;;;;;;;5015670;28;20030;-66
2022/05/05 01:34:44;;;;;;;27.75;6.75;;;;;;;;;;5023217;28;20021;-66
2022/05/05 01:37:09;;;;;;;15.75;3.78;;;;;;;;;;5020237;28;20017;-66
2022/05/05 01:39:34;;;;;;;7.70;3.80;;;;;;;;;;5022995;28;20045;-66
2022/05/05 01:41:59;;;;;;;12.17;4.17;;;;;;;;;;4992297;28;20276;-66
2022/05/05 01:44:25;;;;;;;9.77;4.13;;;;;;;;;;5010874;28;20352;-66
2022/05/05 01:46:52;;;;;;;10.00;4.28;;;;;;;;;;5011552;28;20026;-66
2022/05/05 01:49:17;;;;;;;14.30;3.88;;;;;;;;;;5021394;28;20034;-66
2022/05/05 01:51:43;;;;;;;12.57;4.25;;;;;;;;;;5028254;28;20025;-66
2022/05/05 01:54:08;;;;;;;9.35;4.65;;;;;;;;;;5014896;28;20028;-66
2022/05/05 01:56:33;;;;;;;14.17;4.00;;;;;;;;;;5010155;28;20088;-66
2022/05/05 01:58:58;;;;;;;12.60;3.92;;;;;;;;;;5022723;28;20814;-66
2022/05/05 02:01:23;;;;;;;18.00;4.90;;;;;;;;;;5018885;28;20026;-66
2022/05/05 02:03:48;;;;;;;7.03;4.20;;;;;;;;;;5026554;28;20283;-66
2022/05/05 02:06:16;;;;;;;13.47;4.23;;;;;;;;;;5018498;28;20273;-66
2022/05/05 02:08:41;;;;;;;11.00;4.15;;;;;;;;;;5012721;28;20677;-66
2022/05/05 02:11:06;;;;;;;12.77;3.70;;;;;;;;;;5011898;28;20033;-66
2022/05/05 02:13:32;;;;;;;13.55;4.30;;;;;;;;;;5026851;28;20022;-66
2022/05/05 02:15:57;;;;;;;7.70;3.67;;;;;;;;;;5009861;28;20137;-66
2022/05/05 02:18:23;;;;;;;13.23;4.38;;;;;;;;;;5027710;28;20017;-66
2022/05/05 02:20:48;;;;;;;9.57;3.95;;;;;;;;;;5019510;28;20073;-66
2022/05/05 02:23:15;;;;;;;13.60;4.13;;;;;;;;;;5009664;28;20021;-66
2022/05/05 02:25:40;;;;;;;5.00;3.30;;;;;;;;;;5010689;28;20088;-66
2022/05/05 02:28:06;;;;;;;7.87;3.70;;;;;;;;;;5022334;28;20017;-66
2022/05/05 02:30:31;;;;;;;7.30;3.90;;;;;;;;;;5016561;28;20272;-66
2022/05/05 02:32:57;;;;;;;16.27;4.45;;;;;;;;;;5017665;28;20026;-66
2022/05/05 02:35:23;;;;;;;14.90;5.25;;;;;;;;;;5019353;28;20053;-66
2022/05/05 02:40:33;;;;;;;11.10;3.78;;;;;;;;;;5011395;28;20040;-66
2022/05/05 02:42:58;;;;;;;12.60;4.53;;;;;;;;;;5017746;28;20029;-66
2022/05/05 02:45:24;;;;;;;14.43;4.35;;;;;;;;;;5004111;28;20032;-66
2022/05/05 02:47:49;;;;;;;13.82;3.88;;;;;;;;;;5017067;28;20126;-66
2022/05/05 02:50:15;;;;;;;10.00;3.90;;;;;;;;;;5019748;28;20067;-66
2022/05/05 02:52:40;;;;;;;13.93;4.35;;;;;;;;;;5009719;28;20514;-66
2022/05/05 02:55:06;;;;;;;13.65;4.78;;;;;;;;;;5007405;28;20065;-66
2022/05/05 02:57:31;;;;;;;13.10;4.40;;;;;;;;;;5010888;28;20082;-66
2022/05/05 02:59:57;;;;;;;10.13;4.23;;;;;;;;;;5018427;28;20087;-66
2022/05/05 03:02:23;;;;;;;13.48;3.90;;;;;;;;;;5025378;28;20276;-66
2022/05/05 03:04:49;;;;;;;14.25;4.28;;;;;;;;;;5014127;28;20683;-66
2022/05/05 03:07:15;;;;;;;12.15;4.57;;;;;;;;;;5015071;28;20070;-66
2022/05/05 03:09:40;;;;;;;12.40;4.60;;;;;;;;;;5022719;28;20478;-66
2022/05/05 03:12:06;;;;;;;13.73;4.70;;;;;;;;;;5024529;28;20033;-66
2022/05/05 03:14:31;;;;;;;15.38;4.30;;;;;;;;;;5017997;28;20291;-66
2022/05/05 03:16:57;;;;;;;10.40;4.07;;;;;;;;;;5017304;28;20093;-66
2022/05/05 03:19:22;;;;;;;15.00;4.47;;;;;;;;;;5013754;28;20061;-66
2022/05/05 03:21:47;;;;;;;14.43;5.27;;;;;;;;;;5009900;28;20579;-66
2022/05/05 03:24:12;;;;;;;10.40;4.63;;;;;;;;;;5013065;28;20305;-66
2022/05/05 03:26:38;;;;;;;18.02;4.90;;;;;;;;;;5026944;28;20284;-66
2022/05/05 03:29:04;;;;;;;23.85;5.35;;;;;;;;;;5014153;28;20110;-66
2022/05/05 03:31:29;;;;;;;14.02;5.25;;;;;;;;;;5022113;28;20060;-66
2022/05/05 03:33:55;;;;;;;12.48;4.93;;;;;;;;;;5008183;28;20057;-66
2022/05/05 03:36:20;;;;;;;16.10;5.40;;;;;;;;;;5011723;28;20898;-66
2022/05/05 03:38:45;;;;;;;13.07;5.00;;;;;;;;;;5011115;28;20272;-65
2022/05/05 03:41:10;;;;;;;13.57;5.00;;;;;;;;;;5023139;28;20275;-65
2022/05/05 03:43:35;;;;;;;13.20;5.38;;;;;;;;;;5012276;28;20921;-66
2022/05/05 03:46:00;;;;;;;12.30;4.67;;;;;;;;;;5019562;28;20132;-65
2022/05/05 03:48:26;;;;;;;13.63;4.87;;;;;;;;;;5015788;28;20279;-65
2022/05/05 03:50:51;;;;;;;13.45;6.07;;;;;;;;;;5011463;28;20625;-65
2022/05/05 03:53:16;;;;;;;15.95;5.60;;;;;;;;;;5024887;28;20049;-65
2022/05/05 03:55:41;;;;;;;12.97;5.37;;;;;;;;;;5019219;28;20037;-65
2022/05/05 03:58:07;;;;;;;15.00;5.33;;;;;;;;;;5009893;28;20280;-65
2022/05/05 04:00:32;;;;;;;12.15;4.75;;;;;;;;;;5013690;28;20363;-66
2022/05/05 04:05:41;;;;;;;12.38;5.50;;;;;;;;;;5021258;28;20057;-66
2022/05/05 04:08:06;;;;;;;13.70;5.60;;;;;;;;;;5018976;28;20030;-66
2022/05/05 04:10:32;;;;;;;11.30;5.43;;;;;;;;;;5014864;28;20351;-66
2022/05/05 04:12:57;;;;;;;11.52;4.97;;;;;;;;;;5009640;28;21530;-66
2022/05/05 04:15:22;;;;;;;10.60;5.00;;;;;;;;;;5019619;28;20057;-66
2022/05/05 04:17:48;;;;;;;16.08;5.10;;;;;;;;;;5019230;28;20026;-66
2022/05/05 04:20:13;;;;;;;16.65;5.75;;;;;;;;;;5017654;28;20525;-66
2022/05/05 04:22:38;;;;;;;22.55;6.25;;;;;;;;;;5025078;28;20014;-66
2022/05/05 04:25:04;;;;;;;13.80;5.10;;;;;;;;;;5022626;28;20478;-66
2022/05/05 04:27:29;;;;;;;18.15;5.82;;;;;;;;;;5013747;28;20109;-66
2022/05/05 04:29:54;;;;;;;18.17;5.68;;;;;;;;;;5015182;28;20454;-66
2022/05/05 04:32:20;;;;;;;16.30;5.50;;;;;;;;;;5029832;28;20036;-67
2022/05/05 04:34:47;;;;;;;15.20;5.00;;;;;;;;;;5022615;28;20034;-66
2022/05/05 04:37:12;;;;;;;18.02;5.75;;;;;;;;;;5014807;28;20458;-66
2022/05/05 04:39:37;;;;;;;16.15;5.22;;;;;;;;;;5017141;28;20029;-66
2022/05/05 04:42:02;;;;;;;16.83;5.90;;;;;;;;;;5013648;28;20022;-66
2022/05/05 04:44:28;;;;;;;18.85;5.35;;;;;;;;;;5022567;28;20381;-66
2022/05/05 04:46:53;;;;;;;16.10;5.40;;;;;;;;;;5022327;28;20021;-66
2022/05/05 04:49:18;;;;;;;10.47;4.77;;;;;;;;;;5014502;28;20343;-66
2022/05/05 04:51:43;;;;;;;15.57;6.00;;;;;;;;;;5025348;28;20325;-66
2022/05/05 04:54:09;;;;;;;20.55;5.65;;;;;;;;;;5016592;28;20320;-66
2022/05/05 04:56:34;;;;;;;15.70;6.05;;;;;;;;;;5011761;28;20026;-66
2022/05/05 04:58:59;;;;;;;19.35;5.07;;;;;;;;;;5021063;28;20027;-66
2022/05/05 05:01:24;;;;;;;16.70;5.87;;;;;;;;;;5018260;28;20030;-66
2022/05/05 05:03:50;;;;;;;15.90;5.88;;;;;;;;;;5016055;28;20307;-66
2022/05/05 05:06:15;;;;;;;11.07;5.47;;;;;;;;;;5021577;28;20533;-66
2022/05/05 05:08:42;;;;;;;31.88;6.60;;;;;;;;;;5017843;28;20025;-66
2022/05/05 05:11:07;;;;;;;12.90;5.38;;;;;;;;;;5019721;28;20110;-66
2022/05/05 05:13:33;;;;;;;12.95;6.00;;;;;;;;;;5016862;28;20487;-66
2022/05/05 05:15:58;;;;;;;12.25;5.15;;;;;;;;;;5024140;28;20382;-66
2022/05/05 05:18:23;;;;;;;12.02;5.28;;;;;;;;;;5018727;28;20022;-66
2022/05/05 05:20:48;;;;;;;10.60;4.95;;;;;;;;;;5026428;28;20026;-66
2022/05/05 05:23:14;;;;;;;13.52;6.50;;;;;;;;;;5011478;28;20018;-66
2022/05/05 05:25:39;;;;;;;19.58;7.15;;;;;;;;;;5056326;22;20040;-72
2022/05/05 05:28:05;;;;;;;19.40;7.22;;;;;;;;;;5068837;28;20017;-72
2022/05/05 05:30:30;;;;;;;15.63;7.18;;;;;;;;;;5065149;28;20024;-68
2022/05/05 05:32:55;;;;;;;18.23;7.07;;;;;;;;;;5068340;28;20518;-69
2022/05/05 05:35:20;;;;;;;21.92;6.65;;;;;;;;;;5065110;28;20041;-72
2022/05/05 05:37:45;;;;;;;17.52;6.95;;;;;;;;;;5043344;28;20020;-72
2022/05/05 05:40:11;;;;;;;20.50;7.70;;;;;;;;;;5066193;28;20059;-70
2022/05/05 05:42:36;;;;;;;14.63;7.35;;;;;;;;;;5068340;28;20267;-73
2022/05/05 05:45:01;;;;;;;16.02;7.53;;;;;;;;;;5065083;28;20028;-71
2022/05/05 05:47:26;;;;;;;25.75;7.57;;;;;;;;;;5066175;28;20030;-72
2022/05/05 05:49:52;;;;;;;18.55;6.78;;;;;;;;;;5069271;28;20465;-72
2022/05/05 05:52:17;;;;;;;18.33;8.00;;;;;;;;;;5068833;28;20028;-71
2022/05/05 05:54:42;;;;;;;20.00;7.25;;;;;;;;;;5068057;28;20574;-69
2022/05/05 05:57:07;;;;;;;24.13;7.95;;;;;;;;;;5054005;28;20035;-69
2022/05/05 05:59:32;;;;;;;19.73;7.55;;;;;;;;;;5063513;28;20161;-72
2022/05/05 06:04:41;;;;;;;17.55;7.40;;;;;;;;;;5066887;28;20023;-71
2022/05/05 06:07:07;;;;;;;17.52;7.90;;;;;;;;;;5070343;28;20021;-72
2022/05/05 06:09:32;;;;;;;18.80;7.28;;;;;;;;;;5068498;28;20016;-72
2022/05/05 06:11:57;;;;;;;19.10;7.82;;;;;;;;;;5051937;28;20017;-72
2022/05/05 06:14:22;;;;;;;19.90;8.93;;;;;;;;;;5067653;28;20495;-72
2022/05/05 06:16:47;;;;;;;18.10;7.57;;;;;;;;;;5068444;28;20279;-72
2022/05/05 06:19:13;;;;;;;21.67;8.75;;;;;;;;;;5069871;28;20020;-71
2022/05/05 06:21:39;;;;;;;22.25;8.45;;;;;;;;;;5063151;28;20017;-70
2022/05/05 06:24:04;;;;;;;24.33;8.90;;;;;;;;;;5056317;28;20029;-72
2022/05/05 06:26:29;;;;;;;26.92;10.27;;;;;;;;;;5068797;28;20031;-72
2022/05/05 06:28:55;;;;;;;27.75;10.90;;;;;;;;;;5069915;28;20017;-72
2022/05/05 06:31:20;;;;;;;34.33;12.02;;;;;;;;;;5068402;28;20036;-71
2022/05/05 06:33:45;;;;;;;30.80;10.23;;;;;;;;;;5068846;28;20012;-72
2022/05/05 06:36:11;;;;;;;21.85;9.48;;;;;;;;;;5055311;28;20020;-70
2022/05/05 06:38:36;;;;;;;21.45;11.65;;;;;;;;;;5068652;28;20380;-72
2022/05/05 06:41:01;;;;;;;30.00;12.03;;;;;;;;;;5070239;28;20056;-72
2022/05/05 06:43:27;;;;;;;29.60;10.93;;;;;;;;;;5070265;28;20266;-73
2022/05/05 06:45:52;;;;;;;25.80;10.63;;;;;;;;;;5068014;28;20055;-73
2022/05/05 06:48:17;;;;;;;22.85;10.73;;;;;;;;;;5063494;28;20024;-72
2022/05/05 06:50:42;;;;;;;26.90;10.82;;;;;;;;;;5063835;28;20029;-73
2022/05/05 06:53:08;;;;;;;35.93;11.70;;;;;;;;;;5050376;28;20016;-72
2022/05/05 06:55:33;;;;;;;25.83;10.87;;;;;;;;;;5069993;28;20310;-73
2022/05/05 06:57:58;;;;;;;27.35;10.77;;;;;;;;;;5065750;28;20278;-71
2022/05/05 07:00:23;;;;;;;25.33;10.95;;;;;;;;;;5061985;28;20445;-73
2022/05/05 07:02:48;;;;;;;29.10;11.02;;;;;;;;;;5057450;28;20025;-72
2022/05/05 07:05:23;;;;;;;23.67;10.27;;;;;;;;;;5062243;28;20028;-73
2022/05/05 07:07:48;;;;;;;29.02;12.05;;;;;;;;;;5063411;28;20279;-74
2022/05/05 07:12:58;;;;;;;37.80;11.93;;;;;;;;;;5065918;28;20420;-72
2022/05/05 07:15:23;;;;;;;36.58;12.60;;;;;;;;;;5068519;28;20025;-73
2022/05/05 07:17:48;;;;;;;24.27;10.43;;;;;;;;;;5064054;28;20024;-72
2022/05/05 07:20:13;;;;;;;23.93;11.93;;;;;;;;;;5063963;28;20673;-74
2022/05/05 07:22:40;;;;;;;25.52;11.13;;;;;;;;;;5066903;28;20622;-73
2022/05/05 07:25:05;;;;;;;25.80;11.82;;;;;;;;;;5068003;28;20513;-73
2022/05/05 07:27:30;;;;;;;24.88;12.30;;;;;;;;;;5066256;28;20044;-73
2022/05/05 07:29:56;;;;;;;33.30;12.57;;;;;;;;;;5067690;28;20021;-73
2022/05/05 07:32:21;;;;;;;31.90;11.50;;;;;;;;;;5064020;28;20306;-73
2022/05/05 07:34:46;;;;;;;31.47;10.60;;;;;;;;;;5063584;28;20278;-73
2022/05/05 07:37:11;;;;;;;34.03;11.80;;;;;;;;;;5067718;28;20767;-74
2022/05/05 07:39:37;;;;;;;26.57;11.43;;;;;;;;;;5065149;28;20644;-72
2022/05/05 07:42:02;;;;;;;33.75;11.63;;;;;;;;;;5066419;28;20350;-73
2022/05/05 07:44:27;;;;;;;30.70;12.00;;;;;;;;;;5067168;28;20465;-72
2022/05/05 07:46:53;;;;;;;24.67;11.27;;;;;;;;;;5065384;28;20028;-74
2022/05/05 07:49:18;;;;;;;26.23;10.88;;;;;;;;;;5062924;28;20310;-73
2022/05/05 07:51:43;;;;;;;26.92;10.23;;;;;;;;;;5063191;28;20036;-74
2022/05/05 07:56:52;;;;;;;20.95;10.38;;;;;;;;;;5065819;28;20252;-74
2022/05/05 07:59:19;;;;;;;24.20;11.47;;;;;;;;;;5065422;28;20471;-73
2022/05/05 08:01:44;;;;;;;20.92;12.23;;;;;;;;;;5062663;28;20273;-72
2022/05/05 08:04:09;;;;;;;23.17;10.27;;;;;;;;;;5064815;28;20028;-74
2022/05/05 08:06:35;;;;;;;30.63;11.05;;;;;;;;;;5066866;28;20025;-74
2022/05/05 08:09:00;;;;;;;23.97;10.77;;;;;;;;;;5067491;28;20029;-72
2022/05/05 08:11:27;;;;;;;28.67;11.53;;;;;;;;;;5065668;28;20274;-74
2022/05/05 08:13:53;;;;;;;23.15;11.57;;;;;;;;;;5066555;28;20281;-74
2022/05/05 08:16:19;;;;;;;27.50;10.98;;;;;;;;;;5064485;28;20021;-74
2022/05/05 08:18:44;;;;;;;51.77;13.10;;;;;;;;;;5067052;28;20074;-70
2022/05/05 08:21:10;;;;;;;24.08;11.25;;;;;;;;;;5065356;28;20689;-74
2022/05/05 08:23:35;;;;;;;31.02;10.80;;;;;;;;;;5066067;28;20021;-73
2022/05/05 08:28:44;;;;;;;39.40;11.88;;;;;;;;;;5063697;28;20048;-73
2022/05/05 08:31:10;;;;;;;28.00;12.07;;;;;;;;;;5064814;28;20091;-74
2022/05/05 08:33:36;;;;;;;38.40;11.93;;;;;;;;;;5065154;28;20055;-73
2022/05/05 08:36:01;;;;;;;31.85;12.30;;;;;;;;;;5065203;28;20031;-72
2022/05/05 08:38:26;;;;;;;23.85;11.55;;;;;;;;;;5070185;28;20021;-74
2022/05/05 08:40:52;;;;;;;22.50;10.77;;;;;;;;;;5068851;28;20376;-73
2022/05/05 08:43:18;;;;;;;29.95;11.80;;;;;;;;;;5070765;28;20357;-71
2022/05/05 08:45:45;;;;;;;30.13;11.60;;;;;;;;;;5053444;28;20067;-73
2022/05/05 08:48:12;;;;;;;24.23;10.77;;;;;;;;;;5067231;28;20052;-72
2022/05/05 08:50:38;;;;;;;23.52;10.45;;;;;;;;;;5068555;28;20070;-73
2022/05/05 08:53:05;;;;;;;33.60;11.32;;;;;;;;;;5070050;28;20056;-73
2022/05/05 08:55:30;;;;;;;20.02;11.25;;;;;;;;;;5068969;28;20025;-73
2022/05/05 08:57:56;;;;;;;29.48;11.18;;;;;;;;;;5072064;28;20013;-73
2022/05/05 09:00:21;;;;;;;30.45;11.05;;;;;;;;;;5071507;28;20016;-74
2022/05/05 09:02:51;;;;;;;22.42;9.55;;;;;;;;;;5064867;28;20035;-73
2022/05/05 09:05:36;;;;;;;20.45;10.02;;;;;;;;;;5067004;28;20036;-74
2022/05/05 09:08:02;;;;;;;29.35;12.23;;;;;;;;;;5066095;28;20722;-73
2022/05/05 09:10:40;;;;;;;29.20;10.30;;;;;;;;;;5069150;28;20092;-70
2022/05/05 09:13:06;;;;;;;34.83;10.48;;;;;;;;;;5069970;28;20278;-73
2022/05/05 09:15:32;;;;;;;25.43;12.37;;;;;;;;;;5066027;28;20031;-73
2022/05/05 09:18:09;;;;;;;24.63;10.38;;;;;;;;;;5071046;28;20020;-73
2022/05/05 09:20:35;;;;;;;26.45;12.13;;;;;;;;;;5065825;28;20032;-73
2022/05/05 09:23:00;;;;;;;51.13;11.02;;;;;;;;;;5068737;28;20578;-74
2022/05/05 09:25:42;;;;;;;29.90;10.27;;;;;;;;;;5069774;28;20365;-73
2022/05/05 09:28:23;;;;;;;31.45;10.93;;;;;;;;;;5072098;28;20028;-72
2022/05/05 09:30:49;;;;;;;32.65;11.60;;;;;;;;;;5069533;28;20107;-74
2022/05/05 09:33:16;;;;;;;25.88;9.82;;;;;;;;;;5067956;28;20107;-73
2022/05/05 09:35:41;;;;;;;32.50;10.70;;;;;;;;;;5067333;28;20025;-71
2022/05/05 09:38:06;;;;;;;29.23;11.20;;;;;;;;;;5069131;28;20077;-72
2022/05/05 09:40:31;;;;;;;28.13;10.87;;;;;;;;;;5068620;28;20093;-73
2022/05/05 09:42:56;;;;;;;26.90;11.13;;;;;;;;;;5069191;28;20271;-72
2022/05/05 09:45:23;;;;;;;25.93;11.10;;;;;;;;;;5066403;28;20686;-73
2022/05/05 09:47:53;;;;;;;19.40;8.57;;;;;;;;;;5068296;28;20750;-74
2022/05/05 09:50:20;;;;;;;24.05;10.55;;;;;;;;;;5068650;28;20024;-73
2022/05/05 09:58:19;;;;;;;46.33;12.07;;;;;;;;;;5070007;28;20381;-72
2022/05/05 10:00:44;;;;;;;;;;;;;;;;;;5069028;28;20020;-72
2022/05/05 10:06:00;;;;;;;24.80;9.68;;;;;;;;;;5069780;28;20484;-73
2022/05/05 10:08:30;;;;;;;27.83;11.77;;;;;;;;;;5068997;28;20467;-78
2022/05/05 10:10:56;;;;;;;24.00;11.90;;;;;;;;;;5066161;28;20020;-73
2022/05/05 10:13:23;;;;;;;24.58;12.13;;;;;;;;;;5070116;28;20039;-73
2022/05/05 10:15:48;;;;;;;22.10;12.23;;;;;;;;;;5069169;28;20021;-73
2022/05/05 10:18:16;;;;;;;23.55;11.90;;;;;;;;;;5067683;28;20537;-73
2022/05/05 10:20:41;;;;;;;23.45;10.45;;;;;;;;;;5067217;28;20095;-73
2022/05/05 10:23:09;;;;;;;21.63;11.57;;;;;;;;;;5068671;28;20091;-73
2022/05/05 10:25:37;;;;;;;24.52;11.82;;;;;;;;;;5068979;28;20286;-73
2022/05/05 10:28:02;;;;;;;24.25;10.95;;;;;;;;;;5070595;28;20056;-73
2022/05/05 10:30:34;;;;;;;20.67;9.35;;;;;;;;;;5066848;28;20496;-72
2022/05/05 10:32:59;;;;;;;26.33;10.57;;;;;;;;;;5066424;28;20435;-74
2022/05/05 10:35:26;;;;;;;25.27;10.45;;;;;;;;;;5067642;28;20024;-73
2022/05/05 10:37:51;;;;;;;18.85;9.95;;;;;;;;;;5069611;28;20008;-73
2022/05/05 10:40:17;;;;;;;18.80;8.57;;;;;;;;;;5068442;28;20020;-75
2022/05/05 10:42:49;;;;;;;18.63;11.15;;;;;;;;;;5068751;28;20021;-74
2022/05/05 10:45:27;;;;;;;17.58;8.50;;;;;;;;;;5066280;28;20051;-74
2022/05/05 10:47:55;;;;;;;19.20;10.52;;;;;;;;;;5068897;28;20582;-74
2022/05/05 10:50:28;;;;;;;20.60;10.10;;;;;;;;;;5066390;28;20020;-74
2022/05/05 10:52:53;;;;;;;22.52;10.07;;;;;;;;;;5065403;28;20021;-74
2022/05/05 10:55:45;;;;;;;26.23;11.27;;;;;;;;;;5069711;28;20047;-74
2022/05/05 10:58:11;;;;;;;26.95;13.05;;;;;;;;;;5063470;28;20029;-73
2022/05/05 11:00:40;;;;;;;35.85;13.68;;;;;;;;;;5068973;28;20494;-74
2022/05/05 11:03:09;;;;;;;28.38;11.57;;;;;;;;;;5069416;28;20465;-74
2022/05/05 11:05:36;;;;;;;26.17;13.07;;;;;;;;;;5066433;28;20031;-72
2022/05/05 11:08:14;;;;;;;34.38;11.55;;;;;;;;;;5068627;28;20021;-74
2022/05/05 11:13:52;;;;;;;26.00;11.13;;;;;;;;;;5059310;28;20059;-73
2022/05/05 11:22:16;;;;;;;25.27;11.52;;;;;;;;;;5068896;28;20519;-73
2022/05/05 11:24:44;;;;;;;23.48;10.65;;;;;;;;;;5067433;28;20107;-71
2022/05/05 11:27:11;;;;;;;20.08;10.43;;;;;;;;;;5233496;22;20033;-70
2022/05/05 11:29:36;;;;;;;21.55;12.38;;;;;;;;;;5067216;28;20021;-69
2022/05/05 11:32:04;;;;;;;23.13;12.23;;;;;;;;;;5070052;28;20031;-70
2022/05/05 11:34:33;;;;;;;30.63;12.73;;;;;;;;;;5065778;28;20025;-71
2022/05/05 11:37:01;;;;;;;22.15;11.38;;;;;;;;;;5049645;28;20016;-71
2022/05/05 11:39:27;;;;;;;31.10;11.80;;;;;;;;;;5066392;28;20032;-70
2022/05/05 11:41:57;;;;;;;26.40;11.20;;;;;;;;;;5050040;28;20464;-70
2022/05/05 11:44:22;;;;;;;23.23;11.63;;;;;;;;;;5067801;28;20484;-69
2022/05/05 11:46:48;;;;;;;24.70;10.10;;;;;;;;;;5066241;28;20289;-71
2022/05/05 11:49:13;;;;;;;26.60;10.82;;;;;;;;;;5066685;28;20029;-69
2022/05/05 11:51:38;;;;;;;21.70;10.98;;;;;;;;;;5051987;28;20016;-70
2022/05/05 11:54:11;;;;;;;24.20;10.02;;;;;;;;;;5068799;28;20080;-70
2022/05/05 11:56:42;;;;;;;24.38;11.63;;;;;;;;;;5067462;28;20275;-70
2022/05/05 12:02:04;;;;;;;19.15;10.23;;;;;;;;;;5065317;28;20086;-70
2022/05/05 12:04:30;;;;;;;26.00;10.48;;;;;;;;;;5068570;28;20500;-70
2022/05/05 12:06:57;;;;;;;21.98;9.63;;;;;;;;;;5068004;28;20071;-70
2022/05/05 12:09:22;;;;;;;26.83;9.25;;;;;;;;;;5044579;28;20025;-70
2022/05/05 12:11:47;;;;;;;20.58;9.13;;;;;;;;;;5071032;28;20108;-70
2022/05/05 12:14:13;;;;;;;20.25;9.70;;;;;;;;;;5073417;28;20125;-70
2022/05/05 12:16:38;;;;;;;19.08;9.40;;;;;;;;;;5070011;28;20051;-70
2022/05/05 12:19:13;;;;;;;21.00;8.48;;;;;;;;;;5071281;28;20103;-71
2022/05/05 12:21:50;;;;;;;22.73;8.55;;;;;;;;;;5071274;28;20021;-71
2022/05/05 12:24:16;;;;;;;31.13;9.68;;;;;;;;;;5070263;28;20028;-71
2022/05/05 12:26:41;;;;;;;19.43;9.50;;;;;;;;;;5070698;28;20120;-71
2022/05/05 12:29:13;;;;;;;21.20;9.17;;;;;;;;;;5071737;28;20526;-71
2022/05/05 12:31:39;;;;;;;19.98;8.85;;;;;;;;;;5065550;28;20509;-71
2022/05/05 12:34:04;;;;;;;24.52;10.68;;;;;;;;;;5071738;28;20025;-71
2022/05/05 12:36:29;;;;;;;19.90;9.00;;;;;;;;;;5070483;28;20028;-71
2022/05/05 12:39:13;;;;;;;20.67;8.43;;;;;;;;;;5071033;28;20542;-71
2022/05/05 12:41:55;;;;;;;26.42;9.38;;;;;;;;;;5059523;28;20027;-71
2022/05/05 12:44:20;;;;;;;18.50;9.60;;;;;;;;;;5070774;28;20073;-71
2022/05/05 12:46:49;;;;;;;18.03;7.73;;;;;;;;;;5069088;28;20017;-71
2022/05/05 12:49:32;;;;;;;20.77;7.80;;;;;;;;;;5067201;28;20024;-70
2022/05/05 12:51:57;;;;;;;18.38;7.10;;;;;;;;;;5068047;28;20465;-70
2022/05/05 12:59:55;;;;;;;21.52;8.65;;;;;;;;;;5067871;28;20098;-70
2022/05/05 13:02:20;;;;;;;22.48;8.93;;;;;;;;;;5068558;28;20060;-70
2022/05/05 13:04:47;;;;;;;19.65;7.93;;;;;;;;;;5072143;28;20020;-70
2022/05/05 13:07:12;;;;;;;13.82;7.47;;;;;;;;;;5071465;28;20021;-70
2022/05/05 13:09:37;;;;;;;17.67;8.17;;;;;;;;;;5070992;28;20027;-70
2022/05/05 13:12:02;;;;;;;21.60;8.47;;;;;;;;;;5068118;28;20262;-70
2022/05/05 13:14:27;;;;;;;15.90;8.77;;;;;;;;;;5069978;28;20127;-70
2022/05/05 13:16:53;;;;;;;17.38;8.80;;;;;;;;;;5068670;28;20404;-71
2022/05/05 13:19:18;;;;;;;16.30;6.72;;;;;;;;;;5068810;28;20410;-70
2022/05/05 13:21:44;;;;;;;14.43;6.80;;;;;;;;;;5070127;28;20016;-70
2022/05/05 13:24:10;;;;;;;22.35;8.68;;;;;;;;;;5070349;28;20274;-71
2022/05/05 13:26:39;;;;;;;21.17;7.68;;;;;;;;;;5068832;28;20112;-71
2022/05/05 13:29:04;;;;;;;21.38;6.47;;;;;;;;;;5071133;28;20107;-71
2022/05/05 13:31:29;;;;;;;18.63;7.07;;;;;;;;;;5070030;28;20694;-71
2022/05/05 13:33:55;;;;;;;17.23;7.03;;;;;;;;;;5070293;28;20293;-71
2022/05/05 13:36:20;;;;;;;16.13;6.20;;;;;;;;;;5070294;28;20519;-71
2022/05/05 13:38:45;;;;;;;13.77;6.93;;;;;;;;;;5056663;28;20790;-71
2022/05/05 13:41:10;;;;;;;16.47;6.50;;;;;;;;;;5069828;28;20356;-71
2022/05/05 13:43:36;;;;;;;18.53;7.40;;;;;;;;;;5068297;28;20374;-71
2022/05/05 13:46:01;;;;;;;13.95;6.82;;;;;;;;;;5070083;28;20020;-71
2022/05/05 13:48:26;;;;;;;16.93;7.10;;;;;;;;;;5071287;28;20028;-71
2022/05/05 13:50:51;;;;;;;12.80;7.17;;;;;;;;;;5069026;28;20297;-71
2022/05/05 13:53:16;;;;;;;17.63;6.93;;;;;;;;;;5070195;28;20302;-71
2022/05/05 13:55:42;;;;;;;19.23;7.73;;;;;;;;;;5067484;28;20040;-71
2022/05/05 13:58:07;;;;;;;23.83;7.93;;;;;;;;;;5070215;28;20292;-71
2022/05/05 14:00:32;;;;;;;17.55;7.25;;;;;;;;;;5069760;28;20024;-71
2022/05/05 14:02:58;;;;;;;14.23;7.40;;;;;;;;;;5070222;28;20472;-71
2022/05/05 14:05:23;;;;;;;22.55;7.07;;;;;;;;;;5069280;28;20285;-71
2022/05/05 14:13:16;;;;;;;17.83;8.10;;;;;;;;;;5070222;28;20450;-71
2022/05/05 14:15:41;;;;;;;17.92;8.57;;;;;;;;;;5068932;28;20029;-71
2022/05/05 14:18:06;;;;;;;19.05;7.85;;;;;;;;;;5068582;28;20120;-71
2022/05/05 14:20:32;;;;;;;18.10;7.97;;;;;;;;;;5065856;28;20017;-71
2022/05/05 14:22:57;;;;;;;14.23;7.22;;;;;;;;;;5067685;28;20020;-71
2022/05/05 14:25:23;;;;;;;14.98;6.13;;;;;;;;;;5065912;28;20029;-71
2022/05/05 14:27:48;;;;;;;18.50;7.00;;;;;;;;;;5068354;28;20028;-71
2022/05/05 14:30:14;;;;;;;19.83;8.37;;;;;;;;;;5052777;28;20016;-71
2022/05/05 14:32:39;;;;;;;14.55;6.35;;;;;;;;;;5070360;28;20409;-71
2022/05/05 14:35:04;;;;;;;12.83;6.30;;;;;;;;;;5067099;28;20157;-71
2022/05/05 14:37:30;;;;;;;11.93;5.95;;;;;;;;;;5070005;28;20025;-71
2022/05/05 14:39:55;;;;;;;13.57;6.28;;;;;;;;;;5069116;28;20498;-69
2022/05/05 14:42:21;;;;;;;11.93;6.88;;;;;;;;;;5065390;28;20024;-71
2022/05/05 14:44:46;;;;;;;14.47;6.93;;;;;;;;;;5069659;28;20027;-71
2022/05/05 14:47:11;;;;;;;12.30;5.97;;;;;;;;;;5067031;28;20267;-71
2022/05/05 14:49:37;;;;;;;16.13;7.10;;;;;;;;;;5068582;28;20297;-72
2022/05/05 14:52:03;;;;;;;11.90;5.75;;;;;;;;;;5068384;28;20039;-72
2022/05/05 14:54:29;;;;;;;18.48;6.15;;;;;;;;;;5067442;28;20103;-70
2022/05/05 14:56:55;;;;;;;14.27;7.05;;;;;;;;;;5065215;28;20032;-70
2022/05/05 14:59:20;;;;;;;17.50;6.90;;;;;;;;;;5062364;28;20029;-70
2022/05/05 15:01:45;;;;;;;24.00;6.57;;;;;;;;;;5066128;28;20415;-72
2022/05/05 15:04:11;;;;;;;16.37;6.87;;;;;;;;;;5068033;28;20271;-72
2022/05/05 15:06:36;;;;;;;14.07;6.73;;;;;;;;;;5068506;28;20103;-71
2022/05/05 15:09:01;;;;;;;10.00;5.60;;;;;;;;;;5069699;28;20604;-71
2022/05/05 15:11:26;;;;;;;23.85;9.55;;;;;;;;;;5068825;28;20742;-71
2022/05/05 15:13:51;;;;;;;22.38;7.93;;;;;;;;;;5067724;28;20103;-72
2022/05/05 15:16:17;;;;;;;13.57;7.37;;;;;;;;;;5066651;28;20052;-71